createdAt,value
2023-04-18T00:00:40.268Z,84.95
2023-04-18T00:01:42.073Z,84.67
2023-04-18T00:02:44.105Z,84.68
2023-04-18T00:03:47.211Z,85.30
2023-04-18T00:04:50.410Z,85.19
2023-04-18T00:05:54.481Z,84.91
2023-04-18T00:06:56.021Z,84.57
2023-04-18T00:07:57.434Z,84.43
2023-04-18T00:09:01.483Z,84.07
2023-04-18T00:10:06.482Z,84.23
2023-04-18T00:11:08.036Z,84.34
2023-04-18T00:12:10.305Z,84.22
2023-04-18T00:13:12.119Z,84.20
2023-04-18T00:14:13.746Z,83.84
2023-04-18T00:15:15.873Z,83.49
2023-04-18T00:16:17.334Z,83.44
2023-04-18T00:17:20.425Z,83.32
2023-04-18T00:18:22.110Z,82.93
2023-04-18T00:19:23.716Z,82.77
2023-04-18T00:20:28.105Z,82.62
2023-04-18T00:21:30.287Z,82.49
2023-04-18T00:22:31.858Z,82.62
2023-04-18T00:23:34.484Z,82.45
2023-04-18T00:24:35.947Z,82.25
2023-04-18T00:25:37.497Z,82.20
2023-04-18T00:26:38.931Z,82.04
2023-04-18T00:27:41.079Z,82.01
2023-04-18T00:28:42.566Z,81.81
2023-04-18T00:29:45.226Z,82.10
2023-04-18T00:30:47.152Z,81.94
2023-04-18T00:31:48.629Z,81.95
2023-04-18T00:32:50.233Z,82.00
2023-04-18T00:33:52.878Z,81.63
2023-04-18T00:34:54.463Z,81.57
2023-04-18T00:35:58.345Z,81.82
2023-04-18T00:37:02.126Z,82.15
2023-04-18T00:38:03.579Z,81.86
2023-04-18T00:39:05.049Z,81.85
2023-04-18T00:40:06.951Z,81.88
2023-04-18T00:41:10.871Z,81.86
2023-04-18T00:42:12.549Z,83.24
2023-04-18T00:43:16.726Z,83.58
2023-04-18T00:44:18.218Z,83.82
2023-04-18T00:45:19.808Z,83.81
2023-04-18T00:46:21.347Z,83.62
2023-04-18T00:47:23.146Z,83.36
2023-04-18T00:48:24.675Z,83.14
2023-04-18T00:49:26.922Z,83.00
2023-04-18T00:50:28.448Z,82.95
2023-04-18T00:51:30.502Z,83.04
2023-04-18T00:52:36.103Z,82.97
2023-04-18T00:53:37.801Z,82.74
2023-04-18T00:54:39.793Z,82.55
2023-04-18T00:55:41.399Z,82.74
2023-04-18T00:56:43.059Z,82.92
2023-04-18T00:57:44.562Z,82.97
2023-04-18T00:58:46.051Z,83.00
2023-04-18T00:59:47.733Z,83.13
2023-04-18T01:00:49.389Z,83.41
2023-04-18T01:01:51.131Z,83.29
2023-04-18T01:02:54.010Z,83.26
2023-04-18T01:03:55.820Z,82.99
2023-04-18T01:04:58.696Z,82.60
2023-04-18T01:06:01.090Z,82.69
2023-04-18T01:07:03.266Z,82.64
2023-04-18T01:08:04.780Z,82.45
2023-04-18T01:09:12.104Z,82.45
2023-04-18T01:10:15.866Z,82.87
2023-04-18T01:11:17.357Z,83.30
2023-04-18T01:12:21.545Z,83.67
2023-04-18T01:13:23.171Z,83.91
2023-04-18T01:14:24.674Z,84.16
2023-04-18T01:15:26.136Z,83.92
2023-04-18T01:16:28.452Z,83.43
2023-04-18T01:17:30.460Z,83.29
2023-04-18T01:18:32.359Z,82.80
2023-04-18T01:19:36.131Z,83.03
2023-04-18T01:20:41.312Z,82.90
2023-04-18T01:21:46.090Z,82.73
2023-04-18T01:22:48.484Z,82.85
2023-04-18T01:23:50.673Z,83.12
2023-04-18T01:24:52.117Z,83.76
2023-04-18T01:25:53.511Z,83.37
2023-04-18T01:26:55.201Z,83.25
2023-04-18T01:27:58.782Z,83.15
2023-04-18T01:29:02.183Z,83.20
2023-04-18T01:30:05.209Z,83.36
2023-04-18T01:31:06.660Z,83.97
2023-04-18T01:32:11.280Z,83.78
2023-04-18T01:33:12.727Z,83.21
2023-04-18T01:34:16.811Z,83.14
2023-04-18T01:35:18.420Z,82.71
2023-04-18T01:36:20.122Z,83.53
2023-04-18T01:37:21.817Z,83.32
2023-04-18T01:38:23.386Z,83.30
2023-04-18T01:39:24.838Z,82.87
2023-04-18T01:40:28.589Z,82.87
2023-04-18T01:41:32.538Z,82.67
2023-04-18T01:42:34.401Z,82.68
2023-04-18T01:43:36.098Z,82.73
2023-04-18T01:44:38.355Z,82.48
2023-04-18T01:45:39.921Z,82.42
2023-04-18T01:46:43.554Z,82.20
2023-04-18T01:47:45.177Z,82.40
2023-04-18T01:48:46.604Z,82.74
2023-04-18T01:49:48.452Z,82.73
2023-04-18T01:50:50.275Z,82.58
2023-04-18T01:51:51.706Z,82.26
2023-04-18T01:52:55.659Z,82.19
2023-04-18T01:53:57.123Z,82.28
2023-04-18T01:54:59.507Z,82.38
2023-04-18T01:56:01.079Z,82.91
2023-04-18T01:57:03.376Z,82.74
2023-04-18T01:58:05.051Z,82.50
2023-04-18T01:59:06.658Z,82.37
2023-04-18T02:00:08.597Z,82.97
2023-04-18T02:01:21.086Z,83.10
2023-04-18T02:02:22.619Z,83.93
2023-04-18T02:03:24.790Z,83.98
2023-04-18T02:04:27.272Z,84.13
2023-04-18T02:05:28.783Z,84.08
2023-04-18T02:06:30.804Z,84.16
2023-04-18T02:07:33.419Z,83.65
2023-04-18T02:08:35.931Z,84.13
2023-04-18T02:09:39.347Z,84.61
2023-04-18T02:10:41.413Z,84.46
2023-04-18T02:11:42.824Z,84.76
2023-04-18T02:12:44.467Z,84.93
2023-04-18T02:13:46.030Z,85.30
2023-04-18T02:14:50.952Z,85.04
2023-04-18T02:15:53.640Z,84.91
2023-04-18T02:16:55.183Z,84.86
2023-04-18T02:17:56.825Z,84.53
2023-04-18T02:18:58.352Z,84.61
2023-04-18T02:19:59.859Z,84.62
2023-04-18T02:21:01.969Z,84.32
2023-04-18T02:22:03.390Z,84.52
2023-04-18T02:23:06.113Z,84.44
2023-04-18T02:24:07.509Z,84.22
2023-04-18T02:25:09.263Z,84.12
2023-04-18T02:26:10.920Z,84.43
2023-04-18T02:27:12.481Z,84.30
2023-04-18T02:28:16.239Z,84.12
2023-04-18T02:29:17.747Z,84.24
2023-04-18T02:30:19.242Z,84.03
2023-04-18T02:31:20.778Z,84.09
2023-04-18T02:32:22.240Z,84.20
2023-04-18T02:33:23.720Z,84.13
2023-04-18T02:34:26.652Z,85.29
2023-04-18T02:35:29.150Z,85.79
2023-04-18T02:36:31.009Z,86.31
2023-04-18T02:37:32.456Z,86.80
2023-04-18T02:38:33.859Z,87.98
2023-04-18T02:39:35.480Z,88.32
2023-04-18T02:40:36.908Z,89.95
2023-04-18T02:41:39.396Z,90.39
2023-04-18T02:42:43.156Z,89.23
2023-04-18T02:43:48.031Z,88.44
2023-04-18T02:44:51.085Z,88.10
2023-04-18T02:45:52.965Z,87.90
2023-04-18T02:46:54.634Z,87.72
2023-04-18T02:47:56.802Z,87.11
2023-04-18T02:48:58.565Z,87.30
2023-04-18T02:50:00.241Z,87.46
2023-04-18T02:51:06.302Z,87.17
2023-04-18T02:52:09.816Z,87.71
2023-04-18T02:53:11.378Z,87.93
2023-04-18T02:54:30.652Z,89.93
2023-04-18T02:55:40.612Z,89.70
2023-04-18T02:56:42.855Z,88.86
2023-04-18T02:57:57.008Z,88.26
2023-04-18T02:59:32.162Z,87.83
2023-04-18T03:00:34.289Z,87.37
2023-04-18T03:01:53.789Z,87.53
2023-04-18T03:02:57.243Z,86.99
2023-04-18T03:04:11.346Z,86.62
2023-04-18T03:05:17.368Z,86.53
2023-04-18T03:06:19.143Z,86.63
2023-04-18T03:07:22.104Z,86.67
2023-04-18T03:08:25.734Z,86.38
2023-04-18T03:09:27.574Z,86.47
2023-04-18T03:10:33.862Z,86.63
2023-04-18T03:11:35.598Z,87.15
2023-04-18T03:12:37.179Z,87.21
2023-04-18T03:13:39.181Z,87.05
2023-04-18T03:14:40.875Z,86.75
2023-04-18T03:15:42.488Z,86.61
2023-04-18T03:16:44.998Z,87.00
2023-04-18T03:17:50.423Z,86.23
2023-04-18T03:18:56.368Z,86.64
2023-04-18T03:19:58.162Z,87.36
2023-04-18T03:22:03.567Z,86.51
2023-04-18T03:23:05.457Z,86.59
2023-04-18T03:24:07.127Z,86.55
2023-04-18T03:25:12.313Z,86.35
2023-04-18T03:26:17.640Z,86.65
2023-04-18T03:27:20.574Z,87.58
2023-04-18T03:28:22.703Z,87.90
2023-04-18T03:29:24.766Z,88.27
2023-04-18T03:30:28.193Z,87.58
2023-04-18T03:31:33.450Z,87.17
2023-04-18T03:32:36.428Z,86.76
2023-04-18T03:33:39.338Z,86.52
2023-04-18T03:34:44.559Z,86.77
2023-04-18T03:35:46.438Z,86.57
2023-04-18T03:36:48.324Z,86.35
2023-04-18T03:37:51.768Z,86.42
2023-04-18T03:39:00.794Z,86.16
2023-04-18T03:40:02.388Z,86.38
2023-04-18T03:41:05.132Z,85.88
2023-04-18T03:42:09.382Z,87.02
2023-04-18T03:43:13.929Z,87.57
2023-04-18T03:44:17.654Z,86.94
2023-04-18T03:45:20.003Z,87.58
2023-04-18T03:46:24.642Z,87.70
2023-04-18T03:47:29.481Z,87.44
2023-04-18T03:48:35.885Z,87.06
2023-04-18T03:49:41.363Z,86.95
2023-04-18T03:50:43.250Z,87.93
2023-04-18T03:51:52.017Z,87.26
2023-04-18T03:52:53.670Z,86.98
2023-04-18T03:53:55.210Z,88.41
2023-04-18T03:54:57.947Z,88.82
2023-04-18T03:56:04.775Z,88.24
2023-04-18T03:57:26.796Z,88.13
2023-04-18T03:58:28.415Z,87.92
2023-04-18T03:59:30.921Z,87.29
2023-04-18T04:00:32.423Z,87.31
2023-04-18T04:01:39.945Z,86.67
2023-04-18T04:02:41.606Z,86.86
2023-04-18T04:03:47.346Z,86.34
2023-04-18T04:04:49.722Z,86.36
2023-04-18T04:05:51.420Z,86.07
2023-04-18T04:06:53.301Z,86.01
2023-04-18T04:07:55.018Z,86.07
2023-04-18T04:08:57.763Z,86.24
2023-04-18T04:10:01.187Z,85.89
2023-04-18T04:11:02.885Z,85.94
2023-04-18T04:12:04.719Z,85.94
2023-04-18T04:13:06.989Z,85.88
2023-04-18T04:14:11.329Z,86.18
2023-04-18T04:15:17.701Z,86.02
2023-04-18T04:16:25.616Z,85.94
2023-04-18T04:17:29.483Z,85.29
2023-04-18T04:18:31.413Z,85.69
2023-04-18T04:19:35.420Z,85.65
2023-04-18T04:20:45.446Z,85.67
2023-04-18T04:21:51.815Z,85.36
2023-04-18T04:22:53.838Z,85.51
2023-04-18T04:23:57.001Z,86.17
2023-04-18T04:25:07.560Z,85.92
2023-04-18T04:26:15.066Z,86.60
2023-04-18T04:27:26.903Z,86.01
2023-04-18T04:28:28.717Z,86.22
2023-04-18T04:29:36.123Z,85.68
2023-04-18T04:30:38.223Z,86.07
2023-04-18T04:31:42.120Z,86.06
2023-04-18T04:32:46.908Z,85.92
2023-04-18T04:33:48.901Z,86.19
2023-04-18T04:34:53.640Z,85.71
2023-04-18T04:35:56.434Z,85.56
2023-04-18T04:36:58.819Z,85.72
2023-04-18T04:38:02.146Z,85.71
2023-04-18T04:39:12.833Z,85.80
2023-04-18T04:40:25.547Z,86.50
2023-04-18T04:41:31.630Z,87.79
2023-04-18T04:42:33.467Z,88.50
2023-04-18T04:43:42.753Z,88.24
2023-04-18T04:44:47.210Z,88.81
2023-04-18T04:45:52.505Z,88.52
2023-04-18T04:46:57.593Z,88.48
2023-04-18T04:48:08.619Z,88.49
2023-04-18T04:49:11.550Z,88.60
2023-04-18T04:50:15.513Z,88.59
2023-04-18T04:51:16.941Z,88.21
2023-04-18T04:52:18.508Z,88.70
2023-04-18T04:53:20.689Z,88.70
2023-04-18T04:54:22.457Z,89.76
2023-04-18T04:55:24.522Z,90.23
2023-04-18T04:56:26.256Z,91.07
2023-04-18T04:57:27.719Z,91.28
2023-04-18T04:58:29.738Z,91.10
2023-04-18T04:59:51.320Z,90.98
2023-04-18T05:00:53.614Z,90.98
2023-04-18T05:01:55.461Z,91.19
2023-04-18T05:02:57.663Z,91.42
2023-04-18T05:04:03.836Z,91.89
2023-04-18T05:05:05.971Z,91.66
2023-04-18T05:06:07.673Z,91.33
2023-04-18T05:07:09.348Z,91.42
2023-04-18T05:08:11.321Z,92.01
2023-04-18T05:09:13.564Z,92.34
2023-04-18T05:10:15.202Z,92.13
2023-04-18T05:11:17.022Z,91.93
2023-04-18T05:12:18.539Z,92.18
2023-04-18T05:13:20.530Z,92.17
2023-04-18T05:14:22.006Z,92.21
2023-04-18T05:15:24.318Z,92.14
2023-04-18T05:16:26.289Z,92.07
2023-04-18T05:17:29.293Z,91.62
2023-04-18T05:18:32.093Z,91.99
2023-04-18T05:19:38.128Z,91.54
2023-04-18T05:20:40.160Z,91.27
2023-04-18T05:21:41.695Z,91.11
2023-04-18T05:22:43.247Z,91.10
2023-04-18T05:23:47.250Z,91.69
2023-04-18T05:24:49.566Z,91.78
2023-04-18T05:25:51.206Z,91.61
2023-04-18T05:26:53.231Z,91.34
2023-04-18T05:27:57.922Z,91.12
2023-04-18T05:28:59.593Z,90.87
2023-04-18T05:30:01.262Z,90.67
2023-04-18T05:31:02.784Z,90.77
2023-04-18T05:32:04.502Z,91.06
2023-04-18T05:33:06.051Z,90.92
2023-04-18T05:34:09.403Z,91.03
2023-04-18T05:35:12.098Z,91.71
2023-04-18T05:36:13.620Z,91.81
2023-04-18T05:37:15.435Z,91.55
2023-04-18T05:38:16.909Z,91.79
2023-04-18T05:39:18.513Z,91.45
2023-04-18T05:40:19.876Z,90.94
2023-04-18T05:41:21.339Z,91.26
2023-04-18T05:42:23.569Z,91.33
2023-04-18T05:43:25.528Z,91.39
2023-04-18T05:44:27.070Z,91.43
2023-04-18T05:45:28.575Z,91.54
2023-04-18T05:46:30.348Z,91.64
2023-04-18T05:47:33.676Z,91.42
2023-04-18T05:48:37.934Z,91.75
2023-04-18T05:49:39.449Z,91.78
2023-04-18T05:50:40.906Z,91.53
2023-04-18T05:51:45.412Z,91.28
2023-04-18T05:52:48.610Z,91.34
2023-04-18T05:53:50.481Z,91.78
2023-04-18T05:54:52.780Z,92.08
2023-04-18T05:55:56.615Z,92.39
2023-04-18T05:56:58.565Z,92.39
2023-04-18T05:58:00.381Z,92.68
2023-04-18T05:59:05.171Z,92.52
2023-04-18T06:00:12.167Z,92.93
2023-04-18T06:01:18.500Z,92.44
2023-04-18T06:02:23.328Z,92.30
2023-04-18T06:03:27.594Z,92.14
2023-04-18T06:04:29.787Z,92.00
2023-04-18T06:05:32.066Z,91.91
2023-04-18T06:06:41.336Z,91.58
2023-04-18T06:07:43.066Z,91.97
2023-04-18T06:08:47.433Z,92.18
2023-04-18T06:09:52.282Z,92.28
2023-04-18T06:10:53.683Z,92.09
2023-04-18T06:11:55.369Z,92.05
2023-04-18T06:12:56.752Z,92.84
2023-04-18T06:13:58.238Z,92.46
2023-04-18T06:14:59.950Z,91.97
2023-04-18T06:16:01.471Z,91.94
2023-04-18T06:17:02.946Z,91.38
2023-04-18T06:18:04.576Z,91.52
2023-04-18T06:19:06.100Z,91.79
2023-04-18T06:20:08.128Z,91.29
2023-04-18T06:21:09.621Z,91.20
2023-04-18T06:22:11.060Z,90.71
2023-04-18T06:23:12.689Z,90.81
2023-04-18T06:24:14.544Z,90.63
2023-04-18T06:25:16.574Z,90.74
2023-04-18T06:26:18.055Z,90.17
2023-04-18T06:27:30.612Z,89.74
2023-04-18T06:28:33.014Z,89.46
2023-04-18T06:29:36.047Z,89.38
2023-04-18T06:30:38.288Z,89.56
2023-04-18T06:31:39.895Z,89.86
2023-04-18T06:32:41.435Z,89.37
2023-04-18T06:33:42.906Z,89.12
2023-04-18T06:34:44.832Z,88.56
2023-04-18T06:35:46.344Z,88.61
2023-04-18T06:36:47.790Z,88.74
2023-04-18T06:37:49.604Z,88.90
2023-04-18T06:38:51.312Z,89.09
2023-04-18T06:39:52.703Z,89.14
2023-04-18T06:40:54.132Z,88.68
2023-04-18T06:41:56.902Z,88.33
2023-04-18T06:43:02.980Z,88.05
2023-04-18T06:44:04.933Z,88.29
2023-04-18T06:45:06.838Z,87.60
2023-04-18T06:46:08.473Z,87.60
2023-04-18T06:47:10.610Z,87.27
2023-04-18T06:48:12.296Z,87.73
2023-04-18T06:49:13.945Z,87.52
2023-04-18T06:50:15.913Z,87.67
2023-04-18T06:51:17.358Z,87.15
2023-04-18T06:52:21.066Z,86.27
2023-04-18T06:53:22.662Z,86.27
2023-04-18T06:54:24.487Z,86.62
2023-04-18T06:55:25.984Z,86.09
2023-04-18T06:56:27.497Z,86.30
2023-04-18T06:57:28.926Z,86.21
2023-04-18T06:58:30.706Z,86.42
2023-04-18T06:59:32.257Z,85.48
2023-04-18T07:00:33.834Z,85.83
2023-04-18T07:01:41.743Z,85.63
2023-04-18T07:02:43.706Z,84.82
2023-04-18T07:03:46.001Z,84.62
2023-04-18T07:04:48.577Z,84.51
2023-04-18T07:05:51.529Z,83.93
2023-04-18T07:06:53.147Z,84.37
2023-04-18T07:07:54.729Z,83.86
2023-04-18T07:09:01.904Z,84.15
2023-04-18T07:10:03.761Z,83.20
2023-04-18T07:11:06.062Z,83.46
2023-04-18T07:12:07.663Z,83.05
2023-04-18T07:13:09.567Z,82.93
2023-04-18T07:14:12.244Z,82.89
2023-04-18T07:15:14.217Z,82.52
2023-04-18T07:16:15.894Z,81.46
2023-04-18T07:17:17.941Z,81.73
2023-04-18T07:18:30.329Z,82.09
2023-04-18T07:19:36.216Z,82.44
2023-04-18T07:20:37.845Z,82.46
2023-04-18T07:21:40.632Z,81.67
2023-04-18T07:22:42.294Z,81.17
2023-04-18T07:23:43.750Z,81.23
2023-04-18T07:24:45.547Z,81.03
2023-04-18T07:25:47.065Z,80.88
2023-04-18T07:26:48.477Z,79.75
2023-04-18T07:27:50.424Z,79.52
2023-04-18T07:28:52.034Z,79.22
2023-04-18T07:29:53.527Z,79.52
2023-04-18T07:30:56.852Z,79.15
2023-04-18T07:31:59.016Z,78.62
2023-04-18T07:33:00.666Z,78.10
2023-04-18T07:34:02.229Z,78.20
2023-04-18T07:35:04.525Z,78.88
2023-04-18T07:36:06.146Z,78.70
2023-04-18T07:37:07.603Z,78.57
2023-04-18T07:38:09.536Z,79.13
2023-04-18T07:39:11.177Z,79.15
2023-04-18T07:40:12.847Z,79.58
2023-04-18T07:41:14.609Z,79.19
2023-04-18T07:42:16.093Z,78.77
2023-04-18T07:43:18.403Z,78.92
2023-04-18T07:44:21.902Z,79.24
2023-04-18T07:45:23.371Z,79.62
2023-04-18T07:46:24.994Z,79.14
2023-04-18T07:47:29.407Z,78.79
2023-04-18T07:48:31.614Z,79.30
2023-04-18T07:49:34.065Z,79.29
2023-04-18T07:50:35.654Z,79.29
2023-04-18T07:51:37.176Z,79.53
2023-04-18T07:52:39.639Z,79.71
2023-04-18T07:53:41.268Z,79.31
2023-04-18T07:54:42.834Z,79.65
2023-04-18T07:55:45.157Z,79.82
2023-04-18T07:56:46.883Z,79.61
2023-04-18T07:57:50.478Z,79.55
2023-04-18T07:58:53.047Z,79.32
2023-04-18T07:59:54.865Z,79.44
2023-04-18T08:00:56.885Z,79.33
2023-04-18T08:01:58.537Z,79.42
2023-04-18T08:03:00.281Z,79.65
2023-04-18T08:04:02.163Z,80.01
2023-04-18T08:05:04.047Z,80.15
2023-04-18T08:06:06.094Z,80.33
2023-04-18T08:07:07.517Z,80.10
2023-04-18T08:08:11.735Z,80.50
2023-04-18T08:09:13.486Z,80.46
2023-04-18T08:10:15.625Z,80.53
2023-04-18T08:11:17.356Z,80.50
2023-04-18T08:12:18.984Z,80.67
2023-04-18T08:13:21.702Z,81.45
2023-04-18T08:14:23.575Z,80.91
2023-04-18T08:15:25.327Z,79.44
2023-04-18T08:16:27.369Z,78.71
2023-04-18T08:17:29.107Z,78.94
2023-04-18T08:18:30.741Z,79.23
2023-04-18T08:19:32.355Z,79.56
2023-04-18T08:20:35.955Z,79.59
2023-04-18T08:21:37.929Z,79.63
2023-04-18T08:22:50.431Z,79.23
2023-04-18T08:24:01.576Z,79.13
2023-04-18T08:25:05.560Z,78.83
2023-04-18T08:26:07.686Z,78.59
2023-04-18T08:27:09.351Z,79.33
2023-04-18T08:28:10.976Z,79.30
2023-04-18T08:29:12.946Z,79.75
2023-04-18T08:30:15.327Z,79.49
2023-04-18T08:31:17.245Z,78.97
2023-04-18T08:32:18.855Z,78.93
2023-04-18T08:33:21.944Z,78.15
2023-04-18T08:34:23.744Z,78.23
2023-04-18T08:35:25.627Z,77.84
2023-04-18T08:36:27.853Z,78.01
2023-04-18T08:37:30.323Z,77.90
2023-04-18T08:38:31.955Z,78.21
2023-04-18T08:39:33.685Z,78.23
2023-04-18T08:40:35.490Z,78.72
2023-04-18T08:41:45.937Z,79.06
2023-04-18T08:42:50.256Z,78.89
2023-04-18T08:43:52.017Z,78.02
2023-04-18T08:44:54.205Z,77.99
2023-04-18T08:45:58.534Z,78.09
2023-04-18T08:47:03.574Z,77.76
2023-04-18T08:48:05.282Z,76.68
2023-04-18T08:49:07.065Z,76.54
2023-04-18T08:50:09.655Z,76.42
2023-04-18T08:51:11.392Z,76.50
2023-04-18T08:52:14.149Z,76.75
2023-04-18T08:53:17.784Z,76.99
2023-04-18T08:54:20.921Z,77.32
2023-04-18T08:55:22.485Z,77.00
2023-04-18T08:56:27.574Z,76.59
2023-04-18T08:57:31.026Z,76.50
2023-04-18T08:58:33.924Z,76.33
2023-04-18T08:59:36.213Z,76.72
2023-04-18T09:00:37.825Z,76.51
2023-04-18T09:02:01.502Z,76.48
2023-04-18T09:03:06.259Z,77.10
2023-04-18T09:04:08.127Z,77.33
2023-04-18T09:05:21.274Z,77.23
2023-04-18T09:06:22.973Z,77.32
2023-04-18T09:07:31.065Z,76.75
2023-04-18T09:08:32.625Z,76.70
2023-04-18T09:09:43.493Z,76.72
2023-04-18T09:10:47.728Z,76.88
2023-04-18T09:11:49.626Z,75.78
2023-04-18T09:12:52.421Z,75.88
2023-04-18T09:13:56.319Z,75.88
2023-04-18T09:15:20.420Z,76.36
2023-04-18T09:16:23.370Z,75.88
2023-04-18T09:17:32.616Z,75.82
2023-04-18T09:18:34.523Z,75.74
2023-04-18T09:19:36.508Z,75.17
2023-04-18T09:20:43.604Z,75.19
2023-04-18T09:21:48.791Z,75.84
2023-04-18T09:22:57.687Z,75.81
2023-04-18T09:24:15.873Z,75.52
2023-04-18T09:25:29.600Z,76.09
2023-04-18T09:26:37.028Z,75.93
2023-04-18T09:27:38.635Z,76.16
2023-04-18T09:28:41.328Z,76.66
2023-04-18T09:29:46.275Z,77.13
2023-04-18T09:30:48.740Z,77.23
2023-04-18T09:31:57.730Z,76.61
2023-04-18T09:33:00.562Z,77.01
2023-04-18T09:34:03.500Z,77.51
2023-04-18T09:35:05.660Z,77.33
2023-04-18T09:36:20.072Z,77.54
2023-04-18T09:37:21.918Z,78.21
2023-04-18T09:38:38.845Z,78.17
2023-04-18T09:39:42.618Z,77.45
2023-04-18T09:40:44.807Z,77.64
2023-04-18T09:41:58.642Z,76.17
2023-04-18T09:43:00.607Z,76.83
2023-04-18T09:44:12.530Z,76.33
2023-04-18T09:45:16.506Z,75.82
2023-04-18T09:46:18.376Z,75.12
2023-04-18T09:47:19.901Z,75.55
2023-04-18T09:48:21.952Z,75.54
2023-04-18T09:49:23.604Z,76.69
2023-04-18T09:50:25.386Z,76.73
2023-04-18T09:51:27.167Z,75.82
2023-04-18T09:52:32.867Z,75.63
2023-04-18T09:53:38.065Z,75.39
2023-04-18T09:54:39.851Z,75.78
2023-04-18T09:55:42.364Z,76.04
2023-04-18T09:56:44.885Z,76.40
2023-04-18T09:57:47.405Z,76.72
2023-04-18T09:58:50.580Z,76.01
2023-04-18T09:59:55.028Z,75.89
2023-04-18T10:00:57.053Z,75.87
2023-04-18T10:01:59.628Z,75.79
2023-04-18T10:03:06.076Z,75.95
2023-04-18T10:04:08.151Z,75.37
2023-04-18T10:05:11.286Z,75.25
2023-04-18T10:06:15.961Z,75.35
2023-04-18T10:07:17.904Z,75.65
2023-04-18T10:08:19.768Z,75.62
2023-04-18T10:09:22.370Z,75.79
2023-04-18T10:10:27.744Z,75.65
2023-04-18T10:11:30.681Z,75.86
2023-04-18T10:12:32.794Z,75.94
2023-04-18T10:13:34.691Z,76.12
2023-04-18T10:14:37.358Z,76.24
2023-04-18T10:15:39.987Z,75.97
2023-04-18T10:16:45.477Z,76.04
2023-04-18T10:19:20.731Z,76.23
2023-04-18T10:20:23.848Z,76.57
2023-04-18T10:21:28.639Z,76.52
2023-04-18T10:22:30.774Z,76.84
2023-04-18T10:23:32.428Z,76.84
2023-04-18T10:25:00.567Z,77.05
2023-04-18T10:26:03.100Z,76.99
2023-04-18T10:27:05.017Z,77.10
2023-04-18T10:28:09.804Z,77.29
2023-04-18T10:29:11.622Z,77.65
2023-04-18T10:30:13.992Z,77.68
2023-04-18T10:31:16.346Z,77.83
2023-04-18T10:32:19.119Z,77.66
2023-04-18T10:33:42.519Z,77.54
2023-04-18T10:34:46.129Z,76.51
2023-04-18T10:35:57.492Z,76.93
2023-04-18T10:37:05.535Z,77.03
2023-04-18T10:38:16.600Z,76.38
2023-04-18T10:39:22.436Z,76.68
2023-04-18T10:40:34.753Z,76.14
2023-04-18T10:41:48.842Z,74.87
2023-04-18T10:42:51.472Z,75.78
2023-04-18T10:44:06.329Z,75.25
2023-04-18T10:45:24.782Z,75.38
2023-04-18T10:46:32.238Z,75.35
2023-04-18T10:47:34.942Z,75.45
2023-04-18T10:48:39.411Z,75.26
2023-04-18T10:49:52.859Z,75.73
2023-04-18T10:51:13.420Z,75.41
2023-04-18T10:52:15.714Z,75.45
2023-04-18T10:53:17.307Z,76.22
2023-04-18T10:54:35.915Z,76.19
2023-04-18T10:55:40.717Z,76.20
2023-04-18T10:56:51.251Z,76.31
2023-04-18T10:57:56.116Z,76.36
2023-04-18T10:59:01.466Z,76.22
2023-04-18T11:00:04.545Z,75.86
2023-04-18T11:01:06.488Z,75.42
2023-04-18T11:02:14.456Z,75.63
2023-04-18T11:03:16.189Z,75.55
2023-04-18T11:04:18.476Z,76.38
2023-04-18T11:05:22.120Z,76.57
2023-04-18T11:06:23.833Z,76.92
2023-04-18T11:07:36.732Z,77.17
2023-04-18T11:08:38.203Z,76.69
2023-04-18T11:09:39.869Z,76.54
2023-04-18T11:10:41.327Z,76.22
2023-04-18T11:11:44.927Z,76.28
2023-04-18T11:12:49.383Z,76.07
2023-04-18T11:13:58.259Z,75.32
2023-04-18T11:15:01.444Z,75.13
2023-04-18T11:16:03.421Z,74.11
2023-04-18T11:17:21.933Z,74.71
2023-04-18T11:18:23.918Z,74.57
2023-04-18T11:19:25.646Z,75.19
2023-04-18T11:20:27.630Z,74.91
2023-04-18T11:21:30.836Z,74.20
2023-04-18T11:22:32.743Z,73.50
2023-04-18T11:23:34.639Z,73.73
2023-04-18T11:24:36.579Z,73.73
2023-04-18T11:25:40.593Z,74.46
2023-04-18T11:26:44.650Z,74.83
2023-04-18T11:27:47.104Z,74.74
2023-04-18T11:28:54.720Z,75.14
2023-04-18T11:29:56.840Z,74.76
2023-04-18T11:30:59.540Z,74.71
2023-04-18T11:32:01.048Z,74.19
2023-04-18T11:33:06.385Z,73.42
2023-04-18T11:34:07.818Z,73.43
2023-04-18T11:35:10.606Z,73.58
2023-04-18T11:36:12.741Z,74.03
2023-04-18T11:37:15.543Z,73.67
2023-04-18T11:38:17.118Z,73.64
2023-04-18T11:39:19.344Z,73.98
2023-04-18T11:40:21.066Z,73.96
2023-04-18T11:41:25.677Z,73.84
2023-04-18T11:42:28.601Z,72.73
2023-04-18T11:43:30.485Z,72.97
2023-04-18T11:44:33.096Z,73.09
2023-04-18T11:45:36.109Z,73.54
2023-04-18T11:46:40.361Z,73.80
2023-04-18T11:47:46.320Z,73.40
2023-04-18T11:48:50.471Z,73.35
2023-04-18T11:50:02.338Z,73.38
2023-04-18T11:51:04.957Z,73.64
2023-04-18T11:52:11.429Z,73.51
2023-04-18T11:53:13.014Z,72.04
2023-04-18T11:54:33.725Z,71.53
2023-04-18T11:55:35.867Z,71.70
2023-04-18T11:56:46.267Z,71.43
2023-04-18T11:57:51.423Z,71.52
2023-04-18T11:58:53.047Z,71.09
2023-04-18T11:59:56.757Z,71.69
2023-04-18T12:00:58.551Z,71.71
2023-04-18T12:02:14.845Z,71.61
2023-04-18T12:03:18.900Z,72.47
2023-04-18T12:04:21.330Z,72.59
2023-04-18T12:05:30.716Z,72.06
2023-04-18T12:06:52.827Z,71.57
2023-04-18T12:07:54.924Z,71.85
2023-04-18T12:09:00.726Z,72.64
2023-04-18T12:10:05.601Z,72.75
2023-04-18T12:11:07.418Z,73.73
2023-04-18T12:12:11.282Z,73.62
2023-04-18T12:13:12.922Z,71.86
2023-04-18T12:14:21.674Z,72.38
2023-04-18T12:15:27.330Z,72.33
2023-04-18T12:16:33.644Z,72.67
2023-04-18T12:17:38.559Z,71.62
2023-04-18T12:18:41.937Z,72.35
2023-04-18T12:19:46.563Z,72.87
2023-04-18T12:20:50.851Z,72.79
2023-04-18T12:22:00.756Z,73.15
2023-04-18T12:23:03.828Z,72.91
2023-04-18T12:24:16.030Z,72.77
2023-04-18T12:25:27.555Z,73.06
2023-04-18T12:26:29.607Z,72.39
2023-04-18T12:27:51.553Z,71.88
2023-04-18T12:28:56.189Z,72.07
2023-04-18T12:29:58.076Z,72.79
2023-04-18T12:31:01.955Z,73.03
2023-04-18T12:32:03.582Z,71.10
2023-04-18T12:33:05.563Z,70.44
2023-04-18T12:34:07.235Z,70.92
2023-04-18T12:35:08.951Z,70.70
2023-04-18T12:36:11.108Z,70.90
2023-04-18T12:37:12.532Z,71.66
2023-04-18T12:38:14.436Z,71.31
2023-04-18T12:39:16.109Z,72.09
2023-04-18T12:40:19.504Z,71.92
2023-04-18T12:41:21.243Z,72.95
2023-04-18T12:42:22.706Z,72.84
2023-04-18T12:43:24.327Z,72.25
2023-04-18T12:44:25.894Z,71.25
2023-04-18T12:45:29.777Z,71.53
2023-04-18T12:46:31.498Z,71.43
2023-04-18T12:47:33.646Z,71.57
2023-04-18T12:48:35.788Z,71.53
2023-04-18T12:49:39.642Z,71.84
2023-04-18T12:50:41.125Z,71.87
2023-04-18T12:51:43.626Z,72.14
2023-04-18T12:52:45.960Z,72.14
2023-04-18T12:53:47.419Z,71.86
2023-04-18T12:54:49.972Z,71.46
2023-04-18T12:55:51.731Z,71.46
2023-04-18T12:56:53.705Z,70.68
2023-04-18T12:57:55.960Z,70.51
2023-04-18T12:58:57.436Z,71.12
2023-04-18T12:59:59.675Z,70.91
2023-04-18T13:01:01.520Z,71.39
2023-04-18T13:02:03.125Z,71.42
2023-04-18T13:03:04.894Z,71.46
2023-04-18T13:04:12.225Z,71.73
2023-04-18T13:05:15.759Z,71.82
2023-04-18T13:06:17.213Z,71.30
2023-04-18T13:07:19.586Z,71.48
2023-04-18T13:08:22.275Z,71.62
2023-04-18T13:09:23.791Z,71.85
2023-04-18T13:10:27.870Z,71.66
2023-04-18T13:11:32.161Z,72.42
2023-04-18T13:12:33.723Z,71.81
2023-04-18T13:13:35.798Z,70.98
2023-04-18T13:14:37.345Z,70.63
2023-04-18T13:15:40.933Z,70.45
2023-04-18T13:16:43.879Z,70.50
2023-04-18T13:17:46.257Z,70.57
2023-04-18T13:18:47.880Z,70.46
2023-04-18T13:19:49.658Z,70.85
2023-04-18T13:20:51.419Z,71.16
2023-04-18T13:21:53.308Z,71.43
2023-04-18T13:22:54.988Z,71.40
2023-04-18T13:24:03.707Z,71.82
2023-04-18T13:25:05.793Z,70.76
2023-04-18T13:26:08.668Z,71.57
2023-04-18T13:27:10.566Z,71.48
2023-04-18T13:28:19.907Z,71.55
2023-04-18T13:29:21.464Z,70.68
2023-04-18T13:30:22.901Z,70.79
2023-04-18T13:31:28.611Z,70.03
2023-04-18T13:32:33.181Z,70.51
2023-04-18T13:33:37.150Z,69.81
2023-04-18T13:34:39.794Z,70.59
2023-04-18T13:35:41.643Z,70.04
2023-04-18T13:36:43.293Z,70.49
2023-04-18T13:37:46.136Z,70.62
2023-04-18T13:38:47.729Z,70.76
2023-04-18T13:39:49.738Z,70.83
2023-04-18T13:40:58.241Z,71.39
2023-04-18T13:42:20.633Z,72.08